createdAt,value
2023-01-15T00:00:23.461Z,8.74
2023-01-15T00:01:24.001Z,8.82
2023-01-15T00:02:24.483Z,8.86
2023-01-15T00:03:24.258Z,8.81
2023-01-15T00:04:24.601Z,8.92
2023-01-15T00:05:24.797Z,8.82
2023-01-15T00:06:25.430Z,8.93
2023-01-15T00:07:26.078Z,8.92
2023-01-15T00:08:26.719Z,8.95
2023-01-15T00:09:27.056Z,8.97
2023-01-15T00:10:28.537Z,8.96
2023-01-15T00:11:29.262Z,8.99
2023-01-15T00:12:30.181Z,9
2023-01-15T00:13:30.419Z,9
2023-01-15T00:14:31.375Z,8.99
2023-01-15T00:15:32.604Z,9.02
2023-01-15T00:16:32.573Z,9.08
2023-01-15T00:17:33.138Z,8.99
2023-01-15T00:18:33.068Z,8.96
2023-01-15T00:19:33.978Z,8.95
2023-01-15T00:20:34.921Z,8.92
2023-01-15T00:21:35.920Z,8.95
2023-01-15T00:22:36.614Z,8.93
2023-01-15T00:23:37.537Z,8.92
2023-01-15T00:24:38.783Z,8.84
2023-01-15T00:25:38.453Z,8.96
2023-01-15T00:26:39.378Z,8.9
2023-01-15T00:27:40.775Z,8.93
2023-01-15T00:28:40.444Z,8.93
2023-01-15T00:29:41.669Z,8.99
2023-01-15T00:30:41.568Z,8.97
2023-01-15T00:31:41.894Z,9.02
2023-01-15T00:32:42.390Z,8.97
2023-01-15T00:33:42.313Z,9.11
2023-01-15T00:34:42.959Z,9.03
2023-01-15T00:35:43.887Z,9.03
2023-01-15T00:36:45.087Z,9.16
2023-01-15T00:37:45.324Z,9.09
2023-01-15T00:38:45.524Z,9.21
2023-01-15T00:39:46.754Z,9.16
2023-01-15T00:40:47.662Z,9.21
2023-01-15T00:41:48.157Z,9.26
2023-01-15T00:42:55.146Z,9.33
2023-01-15T00:43:48.494Z,9.39
2023-01-15T00:44:49.150Z,9.44
2023-01-15T00:45:50.013Z,9.51
2023-01-15T00:46:51.374Z,9.52
2023-01-15T00:47:51.299Z,9.48
2023-01-15T00:48:51.966Z,9.59
2023-01-15T00:49:52.605Z,9.51
2023-01-15T00:50:53.525Z,9.58
2023-01-15T00:51:54.521Z,9.69
2023-01-15T00:52:55.010Z,9.66
2023-01-15T00:53:55.225Z,9.69
2023-01-15T00:54:56.150Z,9.7
2023-01-15T00:55:56.646Z,9.69
2023-01-15T00:56:56.873Z,9.73
2023-01-15T00:57:56.797Z,9.69
2023-01-15T00:58:57.725Z,9.72
2023-01-15T00:59:58.216Z,9.7
2023-01-15T01:00:59.065Z,9.74
2023-01-15T01:01:58.880Z,9.73
2023-01-15T01:02:59.108Z,9.84
2023-01-15T01:03:59.045Z,9.84
2023-01-15T01:04:59.992Z,9.82
2023-01-15T01:06:00.492Z,9.95
2023-01-15T01:07:00.984Z,10.02
2023-01-15T01:08:01.221Z,10.06
2023-01-15T01:09:01.464Z,10.12
2023-01-15T01:10:01.129Z,10.15
2023-01-15T01:11:02.392Z,10.24
2023-01-15T01:12:02.771Z,10.15
2023-01-15T01:13:02.403Z,10.28
2023-01-15T01:14:03.222Z,10.25
2023-01-15T01:15:02.867Z,10.33
2023-01-15T01:16:03.914Z,10.33
2023-01-15T01:17:03.954Z,10.36
2023-01-15T01:18:04.157Z,10.38
2023-01-15T01:19:05.397Z,10.38
2023-01-15T01:20:06.342Z,10.42
2023-01-15T01:21:06.553Z,10.41
2023-01-15T01:22:06.866Z,10.51
2023-01-15T01:23:06.783Z,10.45
2023-01-15T01:24:08.018Z,10.51
2023-01-15T01:25:08.216Z,10.67
2023-01-15T01:26:08.870Z,10.65
2023-01-15T01:27:10.094Z,10.62
2023-01-15T01:28:10.588Z,10.68
2023-01-15T01:29:10.491Z,10.62
2023-01-15T01:30:11.478Z,10.68
2023-01-15T01:31:12.615Z,10.59
2023-01-15T01:32:12.586Z,10.67
2023-01-15T01:33:13.510Z,10.67
2023-01-15T01:34:14.440Z,10.71
2023-01-15T01:35:14.836Z,10.76
2023-01-15T01:36:15.760Z,10.72
2023-01-15T01:37:16.482Z,10.8
2023-01-15T01:38:16.118Z,10.8
2023-01-15T01:39:17.402Z,10.83
2023-01-15T01:40:17.626Z,10.8
2023-01-15T01:41:18.112Z,10.84
2023-01-15T01:42:18.461Z,10.86
2023-01-15T01:43:18.848Z,10.87
2023-01-15T01:44:20.052Z,10.94
2023-01-15T01:45:20.670Z,10.95
2023-01-15T01:46:21.379Z,10.9
2023-01-15T01:47:21.813Z,10.92
2023-01-15T01:48:22.745Z,10.9
2023-01-15T01:49:23.945Z,11.04
2023-01-15T01:50:24.166Z,10.94
2023-01-15T01:51:25.093Z,10.98
2023-01-15T01:52:25.077Z,11.07
2023-01-15T01:53:25.571Z,11.07
2023-01-15T01:54:26.220Z,11.05
2023-01-15T01:55:26.747Z,11.01
2023-01-15T01:56:26.651Z,11.08
2023-01-15T01:57:27.587Z,11.05
2023-01-15T01:58:27.816Z,11.12
2023-01-15T01:59:28.168Z,11.05
2023-01-15T02:00:29.087Z,11.02
2023-01-15T02:01:31.137Z,11.07
2023-01-15T02:02:31.011Z,11.05
2023-01-15T02:03:31.661Z,11.13
2023-01-15T02:04:32.178Z,11.04
2023-01-15T02:05:32.392Z,11.16
2023-01-15T02:06:32.626Z,11.2
2023-01-15T02:07:33.257Z,11.15
2023-01-15T02:08:34.187Z,11.15
2023-01-15T02:09:35.238Z,11.22
2023-01-15T02:10:35.443Z,11.19
2023-01-15T02:11:36.084Z,11.23
2023-01-15T02:12:36.799Z,11.3
2023-01-15T02:13:37.043Z,11.22
2023-01-15T02:14:37.962Z,11.2
2023-01-15T02:15:37.893Z,11.35
2023-01-15T02:16:38.958Z,11.22
2023-01-15T02:17:39.398Z,11.34
2023-01-15T02:18:40.618Z,11.25
2023-01-15T02:19:40.536Z,11.34
2023-01-15T02:20:41.051Z,11.31
2023-01-15T02:21:41.259Z,11.26
2023-01-15T02:22:42.269Z,11.35
2023-01-15T02:23:42.198Z,11.25
2023-01-15T02:24:42.696Z,11.34
2023-01-15T02:25:43.342Z,11.23
2023-01-15T02:26:44.592Z,11.35
2023-01-15T02:27:44.851Z,11.34
2023-01-15T02:28:45.777Z,11.35
2023-01-15T02:29:46.280Z,11.34
2023-01-15T02:30:46.929Z,11.34
2023-01-15T02:31:48.007Z,11.37
2023-01-15T02:32:48.454Z,11.31
2023-01-15T02:33:49.091Z,11.37
2023-01-15T02:34:50.354Z,11.37
2023-01-15T02:35:50.264Z,11.31
2023-01-15T02:36:51.177Z,11.38
2023-01-15T02:37:52.127Z,11.35
2023-01-15T02:38:52.333Z,11.35
2023-01-15T02:39:53.299Z,11.31
2023-01-15T02:40:54.256Z,11.3
2023-01-15T02:41:54.764Z,11.33
2023-01-15T02:42:54.460Z,11.35
2023-01-15T02:43:55.399Z,11.37
2023-01-15T02:44:56.317Z,11.33
2023-01-15T02:45:57.461Z,11.41
2023-01-15T02:46:57.871Z,11.41
2023-01-15T02:47:58.363Z,11.38
2023-01-15T02:48:58.863Z,11.35
2023-01-15T02:49:58.778Z,11.38
2023-01-15T02:50:59.701Z,11.43
2023-01-15T02:52:00.355Z,11.34
2023-01-15T02:53:01.370Z,11.35
2023-01-15T02:54:01.597Z,11.26
2023-01-15T02:55:02.830Z,11.34
2023-01-15T02:56:03.227Z,11.33
2023-01-15T02:57:03.884Z,11.41
2023-01-15T02:58:04.414Z,11.37
2023-01-15T02:59:04.627Z,11.34
2023-01-15T03:00:04.571Z,11.37
2023-01-15T03:01:06.242Z,11.43
2023-01-15T03:02:07.327Z,11.37
2023-01-15T03:03:07.485Z,11.44
2023-01-15T03:04:07.840Z,11.44
2023-01-15T03:05:08.802Z,11.43
2023-01-15T03:06:08.720Z,11.43
2023-01-15T03:07:09.673Z,11.44
2023-01-15T03:08:09.877Z,11.41
2023-01-15T03:09:10.104Z,11.43
2023-01-15T03:10:10.365Z,11.45
2023-01-15T03:11:11.297Z,11.43
2023-01-15T03:12:11.803Z,11.48
2023-01-15T03:13:12.835Z,11.44
2023-01-15T03:14:12.460Z,11.44
2023-01-15T03:15:13.395Z,11.43
2023-01-15T03:16:14.393Z,11.44
2023-01-15T03:17:15.043Z,11.48
2023-01-15T03:18:14.987Z,11.41
2023-01-15T03:19:15.905Z,11.41
2023-01-15T03:20:16.262Z,11.43
2023-01-15T03:21:16.899Z,11.38
2023-01-15T03:22:18.110Z,11.4
2023-01-15T03:23:18.143Z,11.44
2023-01-15T03:24:18.632Z,11.44
2023-01-15T03:25:18.847Z,11.51
2023-01-15T03:26:19.336Z,11.44
2023-01-15T03:27:19.567Z,11.45
2023-01-15T03:28:20.497Z,11.53
2023-01-15T03:29:20.723Z,11.52
2023-01-15T03:30:21.913Z,11.43
2023-01-15T03:31:22.485Z,11.49
2023-01-15T03:32:22.970Z,11.45
2023-01-15T03:33:23.271Z,11.43
2023-01-15T03:34:23.624Z,11.48
2023-01-15T03:35:25.110Z,11.45
2023-01-15T03:36:25.299Z,11.45
2023-01-15T03:37:25.929Z,11.51
2023-01-15T03:38:25.844Z,11.56
2023-01-15T03:39:26.474Z,11.51
2023-01-15T03:40:26.151Z,11.53
2023-01-15T03:41:27.371Z,11.53
2023-01-15T03:42:27.730Z,11.52
2023-01-15T03:43:28.739Z,11.53
2023-01-15T03:44:29.367Z,11.49
2023-01-15T03:45:30.558Z,11.52
2023-01-15T03:46:31.308Z,11.48
2023-01-15T03:47:31.239Z,11.52
2023-01-15T03:48:31.605Z,11.52
2023-01-15T03:49:31.974Z,11.49
2023-01-15T03:50:33.472Z,11.48
2023-01-15T03:51:33.414Z,11.4
2023-01-15T03:52:34.330Z,11.33
2023-01-15T03:53:35.334Z,11.45
2023-01-15T03:54:35.632Z,11.34
2023-01-15T03:55:35.848Z,11.38
2023-01-15T03:56:36.769Z,11.33
2023-01-15T03:57:37.410Z,11.27
2023-01-15T03:58:38.610Z,11.3
2023-01-15T03:59:38.536Z,11.34
2023-01-15T04:00:39.199Z,11.26
2023-01-15T04:01:40.588Z,11.27
2023-01-15T04:02:40.687Z,11.34
2023-01-15T04:03:41.395Z,11.41
2023-01-15T04:04:41.707Z,11.33
2023-01-15T04:05:42.624Z,11.35
2023-01-15T04:06:43.599Z,11.37
2023-01-15T04:07:43.804Z,11.3
2023-01-15T04:08:44.444Z,11.34
2023-01-15T04:09:45.394Z,11.35
2023-01-15T04:10:45.649Z,11.31
2023-01-15T04:11:46.181Z,11.31
2023-01-15T04:12:46.178Z,11.22
2023-01-15T04:13:47.113Z,11.26
2023-01-15T04:14:47.764Z,11.13
2023-01-15T04:15:48.808Z,11.13
2023-01-15T04:16:49.194Z,11.18
2023-01-15T04:17:49.290Z,11.16
2023-01-15T04:18:50.230Z,11.08
2023-01-15T04:19:50.183Z,11.18
2023-01-15T04:20:50.821Z,11.05
2023-01-15T04:21:51.026Z,11.07
2023-01-15T04:22:51.629Z,11.1
2023-01-15T04:23:51.910Z,11.1
2023-01-15T04:24:52.335Z,11.13
2023-01-15T04:25:52.966Z,11.05
2023-01-15T04:26:53.166Z,11.01
2023-01-15T04:27:53.072Z,11.08
2023-01-15T04:28:53.297Z,11.05
2023-01-15T04:29:54.206Z,11.07
2023-01-15T04:30:54.355Z,11
2023-01-15T04:31:55.738Z,11
2023-01-15T04:32:55.973Z,10.95
2023-01-15T04:33:55.983Z,11.02
2023-01-15T04:34:56.629Z,11.02
2023-01-15T04:35:57.581Z,11
2023-01-15T04:36:58.541Z,11.05
2023-01-15T04:37:58.518Z,10.98
2023-01-15T04:38:59.458Z,11.04
2023-01-15T04:39:59.952Z,11.04
2023-01-15T04:41:00.894Z,11.01
2023-01-15T04:42:01.099Z,11.02
2023-01-15T04:43:01.316Z,11.05
2023-01-15T04:44:02.334Z,11.04
2023-01-15T04:45:02.413Z,11.05
2023-01-15T04:46:03.060Z,11.08
2023-01-15T04:47:03.668Z,11.04
2023-01-15T04:48:03.904Z,11.01
2023-01-15T04:49:04.139Z,11.04
2023-01-15T04:50:04.771Z,10.97
2023-01-15T04:51:05.423Z,11.04
2023-01-15T04:52:05.633Z,11.07
2023-01-15T04:53:06.546Z,11.07
2023-01-15T04:54:07.577Z,11.02
2023-01-15T04:55:08.793Z,11.04
2023-01-15T04:56:09.756Z,11
2023-01-15T04:57:10.247Z,11.05
2023-01-15T04:58:10.746Z,11
2023-01-15T04:59:10.952Z,11.08
2023-01-15T05:00:11.442Z,11.02
2023-01-15T05:01:12.034Z,11.08
2023-01-15T05:02:15.952Z,11.13
2023-01-15T05:03:12.576Z,11.07
2023-01-15T05:04:13.857Z,11.16
2023-01-15T05:05:14.164Z,11.01
2023-01-15T05:06:13.817Z,11.04
2023-01-15T05:07:14.731Z,11.04
2023-01-15T05:08:15.721Z,11.05
2023-01-15T05:09:15.914Z,11.16
2023-01-15T05:10:16.850Z,11.08
2023-01-15T05:11:18.061Z,11.13
2023-01-15T05:12:18.279Z,11.13
2023-01-15T05:13:18.911Z,11.1
2023-01-15T05:14:19.903Z,11.15
2023-01-15T05:15:19.882Z,11.15
2023-01-15T05:16:20.604Z,11.18
2023-01-15T05:17:21.302Z,11.15
2023-01-15T05:18:22.030Z,11.1
2023-01-15T05:19:22.215Z,11.12
2023-01-15T05:20:22.841Z,11.18
2023-01-15T05:21:23.346Z,11.12
2023-01-15T05:22:23.557Z,11.1
2023-01-15T05:23:24.759Z,11.05
2023-01-15T05:24:24.852Z,11.02
2023-01-15T05:25:26.079Z,11.05
2023-01-15T05:26:27.002Z,10.89
2023-01-15T05:27:27.362Z,10.92
2023-01-15T05:28:28.592Z,10.9
2023-01-15T05:29:29.096Z,10.97
2023-01-15T05:30:29.055Z,10.8
2023-01-15T05:31:30.113Z,10.82
2023-01-15T05:32:30.759Z,10.76
2023-01-15T05:33:31.262Z,10.77
2023-01-15T05:34:31.562Z,10.65
2023-01-15T05:35:31.775Z,10.69
2023-01-15T05:36:32.995Z,10.68
2023-01-15T05:37:33.671Z,10.67
2023-01-15T05:38:34.174Z,10.67
2023-01-15T05:39:34.104Z,10.67
2023-01-15T05:40:34.468Z,10.71
2023-01-15T05:41:35.952Z,10.65
2023-01-15T05:42:35.586Z,10.77
2023-01-15T05:43:36.221Z,10.76
2023-01-15T05:44:37.538Z,10.71
2023-01-15T05:45:38.191Z,10.75
2023-01-15T05:46:39.377Z,10.72
2023-01-15T05:47:39.672Z,10.71
2023-01-15T05:48:40.881Z,10.77
2023-01-15T05:49:40.794Z,10.82
2023-01-15T05:50:41.446Z,10.75
2023-01-15T05:51:41.793Z,10.76
2023-01-15T05:52:42.999Z,10.76
2023-01-15T05:53:42.949Z,10.75
2023-01-15T05:54:44.252Z,10.79
2023-01-15T05:55:45.168Z,10.76
2023-01-15T05:56:46.199Z,10.72
2023-01-15T05:57:46.425Z,10.77
2023-01-15T05:58:47.350Z,10.76
2023-01-15T05:59:47.584Z,10.77
2023-01-15T06:00:47.947Z,10.84
2023-01-15T06:01:49.200Z,10.71
2023-01-15T06:02:50.626Z,10.82
2023-01-15T06:03:51.200Z,10.83
2023-01-15T06:04:51.922Z,10.79
2023-01-15T06:05:52.556Z,10.79
2023-01-15T06:06:52.949Z,10.83
2023-01-15T06:07:54.243Z,10.87
2023-01-15T06:08:54.839Z,10.95
2023-01-15T06:09:55.922Z,10.84
2023-01-15T06:10:57.191Z,10.83
2023-01-15T06:11:57.877Z,10.84
2023-01-15T06:12:59.392Z,10.84
2023-01-15T06:13:59.885Z,10.89
2023-01-15T06:15:00.218Z,10.87
2023-01-15T06:16:00.426Z,10.9
2023-01-15T06:17:01.013Z,10.84
2023-01-15T06:18:01.956Z,10.87
2023-01-15T06:19:02.174Z,10.89
2023-01-15T06:20:03.135Z,10.92
2023-01-15T06:21:03.632Z,10.95
2023-01-15T06:22:03.291Z,10.97
2023-01-15T06:23:04.024Z,10.8
2023-01-15T06:24:04.011Z,10.87
2023-01-15T06:25:04.460Z,10.86
2023-01-15T06:26:05.369Z,10.95
2023-01-15T06:27:05.571Z,10.95
2023-01-15T06:28:05.783Z,10.97
2023-01-15T06:29:06.005Z,10.95
2023-01-15T06:30:06.951Z,10.95
2023-01-15T06:31:08.027Z,10.92
2023-01-15T06:32:08.326Z,11
2023-01-15T06:33:09.229Z,10.92
2023-01-15T06:34:09.228Z,10.92
2023-01-15T06:35:09.934Z,10.89
2023-01-15T06:36:11.174Z,10.9
2023-01-15T06:37:11.123Z,10.95
2023-01-15T06:38:12.046Z,10.9
2023-01-15T06:39:12.566Z,10.87
2023-01-15T06:40:12.784Z,11
2023-01-15T06:41:13.696Z,10.97
2023-01-15T06:42:14.191Z,10.82
2023-01-15T06:43:14.396Z,10.86
2023-01-15T06:44:14.642Z,10.84
2023-01-15T06:45:15.764Z,10.83
2023-01-15T06:46:16.143Z,10.8
2023-01-15T06:47:16.835Z,10.76
2023-01-15T06:48:16.693Z,10.76
2023-01-15T06:49:17.215Z,10.71
2023-01-15T06:50:17.451Z,10.72
2023-01-15T06:51:17.519Z,10.69
2023-01-15T06:52:18.268Z,10.76
2023-01-15T06:53:18.993Z,10.69
2023-01-15T06:54:19.221Z,10.61
2023-01-15T06:55:19.716Z,10.69
2023-01-15T06:56:20.634Z,10.72
2023-01-15T06:57:21.130Z,10.69
2023-01-15T06:58:21.078Z,10.76
2023-01-15T06:59:21.713Z,10.72
2023-01-15T07:00:22.196Z,10.76
2023-01-15T07:01:22.978Z,10.76
2023-01-15T07:02:24.028Z,10.72
2023-01-15T07:03:23.680Z,10.76
2023-01-15T07:04:23.937Z,10.69
2023-01-15T07:05:24.948Z,10.79
2023-01-15T07:06:26.723Z,10.77
2023-01-15T07:07:25.654Z,10.77
2023-01-15T07:08:26.925Z,10.75
2023-01-15T07:09:26.578Z,10.76
2023-01-15T07:10:27.240Z,10.75
2023-01-15T07:11:28.183Z,10.76
2023-01-15T07:12:28.418Z,10.77
2023-01-15T07:13:28.363Z,10.77
2023-01-15T07:14:29.094Z,10.8
2023-01-15T07:15:29.383Z,10.72
2023-01-15T07:16:29.499Z,10.79
2023-01-15T07:17:29.838Z,10.82
2023-01-15T07:18:30.245Z,10.72
2023-01-15T07:19:31.934Z,10.71
2023-01-15T07:20:32.356Z,10.75
2023-01-15T07:21:33.264Z,10.72
2023-01-15T07:22:33.182Z,10.65
2023-01-15T07:23:33.727Z,10.62
2023-01-15T07:24:34.377Z,10.72
2023-01-15T07:25:35.391Z,10.62
2023-01-15T07:26:35.623Z,10.62
2023-01-15T07:27:36.579Z,10.62
2023-01-15T07:28:37.495Z,10.62
2023-01-15T07:29:38.136Z,10.61
2023-01-15T07:30:39.343Z,10.61
2023-01-15T07:31:40.153Z,10.72
2023-01-15T07:32:40.430Z,10.8
2023-01-15T07:33:41.058Z,10.65
2023-01-15T07:34:42.279Z,10.72
2023-01-15T07:35:42.568Z,10.72
2023-01-15T07:36:43.085Z,10.67
2023-01-15T07:37:43.581Z,10.69
2023-01-15T07:38:43.801Z,10.75
2023-01-15T07:39:43.739Z,10.75
2023-01-15T07:40:43.680Z,10.76
2023-01-15T07:41:44.329Z,10.75
2023-01-15T07:42:45.606Z,10.68
2023-01-15T07:43:45.811Z,10.8
2023-01-15T07:44:46.065Z,10.72
2023-01-15T07:45:46.966Z,10.71
2023-01-15T07:46:47.635Z,10.79
2023-01-15T07:47:48.205Z,10.76
2023-01-15T07:48:47.855Z,10.77
2023-01-15T07:49:49.167Z,10.75
2023-01-15T07:50:50.416Z,10.79
2023-01-15T07:51:50.362Z,10.77
2023-01-15T07:52:53.870Z,10.76
2023-01-15T07:53:50.619Z,10.77
2023-01-15T07:54:50.979Z,10.76
2023-01-15T07:55:52.279Z,10.76
2023-01-15T07:56:53.208Z,10.76
2023-01-15T07:57:53.783Z,10.77
2023-01-15T07:58:53.723Z,10.8
2023-01-15T07:59:54.213Z,10.83
2023-01-15T08:00:54.688Z,10.84
2023-01-15T08:01:55.812Z,10.79
2023-01-15T08:02:56.307Z,10.8
2023-01-15T08:03:56.680Z,10.77
2023-01-15T08:04:57.368Z,10.77
2023-01-15T08:05:57.863Z,10.75
2023-01-15T08:06:58.787Z,10.69
2023-01-15T08:08:00.001Z,10.76
2023-01-15T08:09:00.354Z,10.79
2023-01-15T08:10:01.557Z,10.77
2023-01-15T08:11:02.082Z,10.77
2023-01-15T08:12:02.025Z,10.8
2023-01-15T08:13:03.400Z,10.75
2023-01-15T08:14:03.140Z,10.69
2023-01-15T08:15:04.072Z,10.75
2023-01-15T08:16:04.446Z,10.75
2023-01-15T08:17:04.772Z,10.76
2023-01-15T08:18:06.102Z,10.76
2023-01-15T08:19:06.320Z,10.8
2023-01-15T08:20:06.841Z,10.9
2023-01-15T08:21:07.055Z,10.86
2023-01-15T08:22:06.979Z,10.83
2023-01-15T08:23:07.898Z,10.87
2023-01-15T08:24:09.109Z,10.9
2023-01-15T08:25:09.327Z,10.87
2023-01-15T08:26:10.326Z,10.86
2023-01-15T08:27:10.848Z,10.89
2023-01-15T08:28:11.771Z,10.92
2023-01-15T08:29:11.992Z,10.89
2023-01-15T08:30:12.352Z,10.98
2023-01-15T08:31:13.653Z,10.89
2023-01-15T08:32:14.742Z,10.98
2023-01-15T08:33:15.254Z,10.92
2023-01-15T08:34:15.201Z,10.92
2023-01-15T08:35:15.865Z,10.89
2023-01-15T08:36:16.283Z,10.98
2023-01-15T08:37:17.207Z,11.02
2023-01-15T08:38:18.011Z,11.02
2023-01-15T08:39:18.526Z,10.94
2023-01-15T08:40:19.091Z,11
2023-01-15T08:41:19.023Z,10.98
2023-01-15T08:42:20.231Z,11.04
2023-01-15T08:43:20.452Z,11.05
2023-01-15T08:44:20.665Z,11.08
2023-01-15T08:45:21.585Z,11.1
2023-01-15T08:46:22.086Z,11.15
2023-01-15T08:47:22.796Z,11.16
2023-01-15T08:48:24.034Z,11.19
2023-01-15T08:49:24.564Z,11.23
2023-01-15T08:50:25.755Z,11.3
2023-01-15T08:51:25.443Z,11.26
2023-01-15T08:52:26.502Z,11.25
2023-01-15T08:53:27.149Z,11.31
2023-01-15T08:54:28.150Z,11.34
2023-01-15T08:55:28.287Z,11.25
2023-01-15T08:56:29.365Z,11.3
2023-01-15T08:57:29.617Z,11.33
2023-01-15T08:58:30.570Z,11.33
2023-01-15T08:59:31.065Z,11.34
2023-01-15T09:00:31.306Z,11.34
2023-01-15T09:01:32.461Z,11.38
2023-01-15T09:02:32.521Z,11.43
2023-01-15T09:03:32.156Z,11.45
2023-01-15T09:04:33.151Z,11.44
2023-01-15T09:05:33.240Z,11.43
2023-01-15T09:06:33.708Z,11.48
2023-01-15T09:07:35.235Z,11.44
2023-01-15T09:08:35.923Z,11.41
2023-01-15T09:09:35.843Z,11.48
2023-01-15T09:10:36.154Z,11.45
2023-01-15T09:11:36.394Z,11.48
2023-01-15T09:12:36.743Z,11.45
2023-01-15T09:13:37.962Z,11.45
2023-01-15T09:15:06.604Z,11.45
2023-01-15T09:15:38.853Z,11.43
2023-01-15T09:16:39.632Z,11.49
2023-01-15T09:17:39.499Z,11.48
2023-01-15T09:18:40.707Z,11.48
2023-01-15T09:19:40.922Z,11.44
2023-01-15T09:20:42.213Z,11.41
2023-01-15T09:21:42.443Z,11.43
2023-01-15T09:22:42.737Z,11.45
2023-01-15T09:23:42.704Z,11.45
2023-01-15T09:24:44.057Z,11.38
2023-01-15T09:25:45.065Z,11.37
2023-01-15T09:26:46.295Z,11.38
2023-01-15T09:27:46.224Z,11.38
2023-01-15T09:28:46.720Z,11.3
2023-01-15T09:29:47.223Z,11.37
2023-01-15T09:30:47.657Z,11.34
2023-01-15T09:31:47.942Z,11.3
2023-01-15T09:32:48.476Z,11.31
2023-01-15T09:33:48.379Z,11.23
2023-01-15T09:34:49.293Z,11.26
2023-01-15T09:35:50.239Z,11.16
2023-01-15T09:36:51.579Z,11.2
2023-01-15T09:37:52.083Z,11.25
2023-01-15T09:38:52.303Z,11.19
2023-01-15T09:39:52.230Z,11.19
2023-01-15T09:40:52.752Z,11.26
2023-01-15T09:41:52.984Z,11.25
2023-01-15T09:42:53.178Z,11.26
2023-01-15T09:43:57.186Z,11.26
2023-01-15T09:44:54.844Z,11.23
2023-01-15T09:45:56.232Z,11.23
2023-01-15T09:46:56.387Z,11.31
2023-01-15T09:47:57.074Z,11.37
2023-01-15T09:48:57.578Z,11.41
2023-01-15T09:49:58.507Z,11.38
2023-01-15T09:50:58.440Z,11.45
2023-01-15T09:51:59.110Z,11.52
2023-01-15T09:53:00.316Z,11.52
2023-01-15T09:54:00.818Z,11.52
2023-01-15T09:55:01.484Z,11.51
2023-01-15T09:56:01.892Z,11.58
2023-01-15T09:57:02.918Z,11.55
2023-01-15T09:58:04.136Z,11.56
2023-01-15T09:59:04.357Z,11.55
2023-01-15T10:00:05.007Z,11.52
2023-01-15T10:01:06.664Z,11.53
2023-01-15T10:02:06.682Z,11.58
2023-01-15T10:03:07.253Z,11.53
2023-01-15T10:04:07.743Z,11.59
2023-01-15T10:05:10.720Z,11.6
2023-01-15T10:06:07.377Z,11.52
2023-01-15T10:07:07.865Z,11.52
2023-01-15T10:08:08.899Z,11.56
2023-01-15T10:09:09.393Z,11.53
2023-01-15T10:10:09.619Z,11.52
2023-01-15T10:11:10.781Z,11.44
2023-01-15T10:12:11.043Z,11.56
2023-01-15T10:13:11.533Z,11.59
2023-01-15T10:14:12.451Z,11.58
2023-01-15T10:15:13.393Z,11.55
2023-01-15T10:16:13.739Z,11.63
2023-01-15T10:17:14.537Z,11.59
2023-01-15T10:18:14.793Z,11.7
2023-01-15T10:19:15.034Z,11.53
2023-01-15T10:20:15.347Z,11.68
2023-01-15T10:21:16.292Z,11.6
2023-01-15T10:22:16.832Z,11.62
2023-01-15T10:23:17.369Z,11.63
2023-01-15T10:24:17.588Z,11.6
2023-01-15T10:25:17.570Z,11.7
2023-01-15T10:26:18.236Z,11.62
2023-01-15T10:27:19.555Z,11.58
2023-01-15T10:28:19.843Z,11.59
2023-01-15T10:29:19.798Z,11.58
2023-01-15T10:30:21.073Z,11.62
2023-01-15T10:31:21.212Z,11.56
2023-01-15T10:32:21.743Z,11.6
2023-01-15T10:33:22.413Z,11.56
2023-01-15T10:34:22.914Z,11.58
2023-01-15T10:35:23.428Z,11.67
2023-01-15T10:36:23.963Z,11.63
2023-01-15T10:37:24.402Z,11.62
2023-01-15T10:38:24.369Z,11.58
2023-01-15T10:39:27.250Z,11.52
2023-01-15T10:40:25.466Z,11.59
2023-01-15T10:41:26.494Z,11.59
2023-01-15T10:42:27.713Z,11.45
2023-01-15T10:43:28.071Z,11.48
2023-01-15T10:44:31.770Z,11.43
2023-01-15T10:45:29.984Z,11.51
2023-01-15T10:46:30.644Z,11.44
2023-01-15T10:47:31.239Z,11.51
2023-01-15T10:48:32.158Z,11.53
2023-01-15T10:49:32.543Z,11.51
2023-01-15T10:50:33.468Z,11.56
2023-01-15T10:51:33.845Z,11.51
2023-01-15T10:52:34.793Z,11.59
2023-01-15T10:53:35.737Z,11.53
2023-01-15T10:54:36.946Z,11.58
2023-01-15T10:55:36.650Z,11.55
2023-01-15T10:56:37.892Z,11.59
2023-01-15T10:57:38.911Z,11.49
2023-01-15T10:58:39.587Z,11.52
2023-01-15T10:59:40.375Z,11.55
2023-01-15T11:00:40.340Z,11.53
2023-01-15T11:01:41.748Z,11.6
2023-01-15T11:02:42.450Z,11.59
2023-01-15T11:03:43.098Z,11.59
2023-01-15T11:04:46.153Z,11.68
2023-01-15T11:05:44.659Z,11.55
2023-01-15T11:06:44.621Z,11.56
2023-01-15T11:09:07.679Z,11.48
2023-01-15T11:09:25.464Z,11.52
2023-01-15T11:10:25.428Z,11.41
2023-01-15T11:11:26.067Z,11.41
2023-01-15T11:12:26.562Z,11.34
2023-01-15T11:13:27.223Z,11.37
2023-01-15T11:14:27.909Z,11.3
2023-01-15T11:15:28.846Z,11.19
2023-01-15T11:16:29.500Z,11.02
2023-01-15T11:17:29.784Z,10.98
2023-01-15T11:18:30.547Z,10.86
2023-01-15T11:19:31.772Z,10.59
2023-01-15T11:20:32.416Z,10.48
2023-01-15T11:21:32.667Z,10.3
2023-01-15T11:22:33.017Z,10.09
2023-01-15T11:23:33.663Z,9.85
2023-01-15T11:24:34.201Z,9.69
2023-01-15T11:25:34.452Z,9.67
2023-01-15T11:26:34.104Z,9.42
2023-01-15T11:27:35.612Z,9.37
2023-01-15T11:28:35.645Z,9.3
2023-01-15T11:29:36.276Z,9.22
2023-01-15T11:30:36.807Z,9.12
2023-01-15T11:31:37.561Z,9.02
2023-01-15T11:32:38.225Z,9.03
2023-01-15T11:33:38.156Z,8.93
2023-01-15T11:34:38.787Z,8.92
2023-01-15T11:35:39.730Z,8.79
2023-01-15T11:36:40.516Z,8.71
2023-01-15T11:37:41.005Z,8.69
2023-01-15T11:38:41.992Z,8.59
2023-01-15T11:39:41.625Z,8.46
2023-01-15T11:40:42.551Z,8.39
2023-01-15T11:41:43.482Z,8.32
2023-01-15T11:42:44.044Z,8.31
2023-01-15T11:43:44.564Z,8.26
2023-01-15T11:44:44.517Z,8.2
2023-01-15T11:45:45.021Z,8.13
2023-01-15T11:46:45.601Z,8.14
2023-01-15T11:47:45.586Z,8.14
2023-01-15T11:48:46.010Z,8.13
2023-01-15T11:49:47.243Z,8.06
2023-01-15T11:50:48.204Z,8.03
2023-01-15T11:51:49.135Z,7.93
2023-01-15T11:52:49.352Z,7.85
2023-01-15T11:53:49.557Z,7.87
2023-01-15T11:54:50.487Z,7.84
2023-01-15T11:55:51.410Z,7.77
2023-01-15T11:56:51.448Z,7.77
2023-01-15T11:57:51.867Z,7.74
2023-01-15T11:58:52.881Z,7.72
2023-01-15T11:59:53.375Z,7.55
2023-01-15T12:00:54.032Z,7.44
2023-01-15T12:01:54.832Z,7.37
2023-01-15T12:02:56.057Z,7.33
2023-01-15T12:03:56.671Z,7.23
2023-01-15T12:04:57.320Z,7.18
2023-01-15T12:05:57.828Z,7.22
2023-01-15T12:06:58.032Z,7.26
2023-01-15T12:07:58.980Z,7.21
2023-01-15T12:08:59.410Z,7.39
2023-01-15T12:10:01.040Z,7.23
2023-01-15T12:11:26.113Z,7.25
2023-01-15T12:12:02.392Z,7.23
2023-01-15T12:13:02.601Z,7.21
2023-01-15T12:14:03.522Z,7.22
2023-01-15T12:15:03.726Z,7.23
2023-01-15T12:16:04.260Z,7.23
2023-01-15T12:17:05.406Z,7.21
2023-01-15T12:18:06.030Z,7.21
2023-01-15T12:19:06.506Z,7.21
2023-01-15T12:20:07.159Z,7.19
2023-01-15T12:21:08.107Z,7.13
2023-01-15T12:22:09.302Z,7.14
2023-01-15T12:23:09.400Z,6.97
2023-01-15T12:24:10.043Z,7.03
2023-01-15T12:25:10.504Z,7
2023-01-15T12:26:11.707Z,6.9
2023-01-15T12:27:12.969Z,6.92
2023-01-15T12:28:11.878Z,6.87
2023-01-15T12:29:12.881Z,6.97
2023-01-15T12:30:13.077Z,6.96
2023-01-15T12:31:13.445Z,7
2023-01-15T12:32:16.393Z,6.97
2023-01-15T12:33:15.587Z,7.05
2023-01-15T12:34:15.803Z,7.03
2023-01-15T12:35:16.457Z,6.97
2023-01-15T12:36:17.386Z,7.04
2023-01-15T12:37:17.649Z,7.05
2023-01-15T12:38:18.595Z,7
2023-01-15T12:39:18.908Z,7.05
2023-01-15T12:40:19.406Z,7.18
2023-01-15T12:41:19.619Z,7.1
2023-01-15T12:42:19.542Z,7.08
2023-01-15T12:43:20.742Z,7.15
2023-01-15T12:44:21.382Z,7.08
2023-01-15T12:45:21.655Z,7.14
2023-01-15T12:46:21.947Z,7.07
2023-01-15T12:47:21.975Z,6.89
2023-01-15T12:48:22.610Z,6.77
2023-01-15T12:49:23.353Z,6.87
2023-01-15T12:50:23.563Z,6.85
2023-01-15T12:51:24.815Z,6.8
2023-01-15T12:52:25.032Z,6.83
2023-01-15T12:53:25.534Z,6.72
2023-01-15T12:54:25.482Z,6.57
2023-01-15T12:55:26.007Z,6.65
2023-01-15T12:56:26.513Z,6.62
2023-01-15T12:57:26.535Z,6.53
2023-01-15T12:58:26.912Z,6.44
2023-01-15T12:59:27.940Z,6.49
2023-01-15T13:00:28.692Z,6.36
2023-01-15T13:01:29.083Z,6.38
2023-01-15T13:02:29.506Z,6.34
2023-01-15T13:03:30.629Z,6.28
2023-01-15T13:04:30.583Z,6.2
2023-01-15T13:05:32.079Z,6.2
2023-01-15T13:06:32.036Z,6.26
2023-01-15T13:07:32.704Z,6.26
2023-01-15T13:08:33.913Z,6.2
2023-01-15T13:09:34.334Z,6.22